Coral Coast — WDF5120 — position and weather

sailwx.info

Track history (hours):
 
Tides and Currents Weather Stations Pressure Air Temp Water Temp Dewpoint Dewpoint Depression Visibility Wind Speed Wind Dir Waves Ship Positions

Coral Coast

More information available from US FCC via Universal Licensing System and Coast Guard Vessel Documentation Center.

Last reported at 2014-Sep-03 04:33 UTC. Time now 2014-Sep-03 04:59 UTC.
Position N 39°39' W 074°02'.

Length 70 m; draft 5.3 m.

Type: Tug. MMSI: 367459570.

Date/timePositionNaut miles runAvg speedWind from/ knotsBaromVisibWave heightAir tempDewpointWater temp
2014-Sep-03 04:33N 39°39' W 074°02'8 8.1
2014-Sep-03 03:32N 39°47' W 073°59'17 8.2
2014-Sep-03 01:30N 40°03' W 073°56'25 8.3
2014-Sep-02 22:33N 40°28' W 073°55'9 9.4
2014-Sep-02 21:33N 40°35' W 074°02'8 7.8
2014-Sep-02 20:34N 40°42' W 073°60'7 7.4
2014-Sep-02 19:34N 40°48' W 073°54'3 3.1
2014-Sep-02 18:31N 40°46' W 073°51'0 0.0
2014-Sep-02 17:25N 40°46' W 073°51'0 0.0
2014-Sep-02 16:32N 40°46' W 073°51'0 0.0
2014-Sep-02 15:23N 40°46' W 073°51'6 7.2
2014-Sep-02 14:34N 40°44' W 073°58'10 9.8
2014-Sep-02 13:34N 40°39' W 074°09'2 2.4
2014-Sep-02 12:34N 40°38' W 074°12'0 0.0
2014-Sep-02 11:34N 40°38' W 074°12'0 0.0
2014-Sep-02 10:34N 40°38' W 074°12'0 0.0
2014-Sep-02 09:34N 40°38' W 074°12'0 0.0
2014-Sep-02 08:34N 40°38' W 074°12'0 0.0
2014-Sep-02 07:34N 40°38' W 074°12'1 0.8
2014-Sep-02 06:34N 40°39' W 074°11'8 8.2
2014-Sep-02 05:34N 40°41' W 074°01'8 7.3
2014-Sep-02 04:30N 40°48' W 073°55'3 0.4
2014-Sep-01 19:21N 40°46' W 073°51'3 3.9
2014-Sep-01 18:30N 40°48' W 073°54'7 7.1
2014-Sep-01 17:33N 40°43' W 073°59'5 4.5
2014-Sep-01 16:33N 40°39' W 074°02'5 4.9
2014-Sep-01 15:32N 40°34' W 074°02'6 5.6
2014-Sep-01 14:28N 40°30' W 073°56'10 5.0
2014-Sep-01 12:27N 40°20' W 073°53'13 5.6
2014-Sep-01 10:06N 40°07' W 073°54'8 5.3
2014-Sep-01 08:33N 39°59' W 073°56'6 5.3
2014-Sep-01 07:31N 39°53' W 073°57'5 5.4
2014-Sep-01 06:33N 39°48' W 073°58'6 5.6
2014-Sep-01 05:32N 39°43' W 073°59'6 5.7
2014-Sep-01 04:33N 39°38' W 074°03'6 5.7
2014-Sep-01 03:33N 39°32' W 074°05'6 6.0
2014-Sep-01 02:32N 39°27' W 074°09'25 6.3
2014-Aug-31 22:31N 39°05' W 074°25'152 7.2
2014-Aug-31 01:29N 36°45' W 075°41'8 7.2
2014-Aug-31 00:22N 36°38' W 075°45'131 6.3
2014-Aug-30 03:28N 34°29' W 076°16'7 7.2
2014-Aug-30 02:32N 34°25' W 076°22'7 7.3
2014-Aug-30 01:34N 34°20' W 076°29'8 7.3
2014-Aug-30 00:29N 34°15' W 076°36'14 7.2
2014-Aug-29 22:29N 34°06' W 076°49'7 7.1
2014-Aug-29 21:33N 34°02' W 076°56'117 7.3
2014-Aug-29 05:28N 33°12' W 079°02'7 6.1
2014-Aug-29 04:16N 33°13' W 079°11'8 4.2
2014-Aug-29 02:16N 33°20' W 079°17'  
Track history (hours):
 
Tides and Currents Weather Stations Pressure Air Temp Water Temp Dewpoint Dewpoint Depression Visibility Wind Speed Wind Dir Waves Ship Positions

Coral Coast

More information available from US FCC via Universal Licensing System and Coast Guard Vessel Documentation Center.

Last reported at 2014-Sep-03 04:33 UTC. Time now 2014-Sep-03 04:59 UTC.
Position N 39°39' W 074°02'.

Length 70 m; draft 5.3 m.

Type: Tug. MMSI: 367459570.

Date/timePositionNaut miles runAvg speedWind from/ knotsBaromVisibWave heightAir tempDewpointWater temp
2014-Sep-03 04:33N 39°39' W 074°02'8 8.1
2014-Sep-03 03:32N 39°47' W 073°59'17 8.2
2014-Sep-03 01:30N 40°03' W 073°56'25 8.3
2014-Sep-02 22:33N 40°28' W 073°55'9 9.4
2014-Sep-02 21:33N 40°35' W 074°02'8 7.8
2014-Sep-02 20:34N 40°42' W 073°60'7 7.4
2014-Sep-02 19:34N 40°48' W 073°54'3 3.1
2014-Sep-02 18:31N 40°46' W 073°51'0 0.0
2014-Sep-02 17:25N 40°46' W 073°51'0 0.0
2014-Sep-02 16:32N 40°46' W 073°51'0 0.0
2014-Sep-02 15:23N 40°46' W 073°51'6 7.2
2014-Sep-02 14:34N 40°44' W 073°58'10 9.8
2014-Sep-02 13:34N 40°39' W 074°09'2 2.4
2014-Sep-02 12:34N 40°38' W 074°12'0 0.0
2014-Sep-02 11:34N 40°38' W 074°12'0 0.0
2014-Sep-02 10:34N 40°38' W 074°12'0 0.0
2014-Sep-02 09:34N 40°38' W 074°12'0 0.0
2014-Sep-02 08:34N 40°38' W 074°12'0 0.0
2014-Sep-02 07:34N 40°38' W 074°12'1 0.8
2014-Sep-02 06:34N 40°39' W 074°11'8 8.2
2014-Sep-02 05:34N 40°41' W 074°01'8 7.3
2014-Sep-02 04:30N 40°48' W 073°55'3 0.4
2014-Sep-01 19:21N 40°46' W 073°51'3 3.9
2014-Sep-01 18:30N 40°48' W 073°54'7 7.1
2014-Sep-01 17:33N 40°43' W 073°59'5 4.5
2014-Sep-01 16:33N 40°39' W 074°02'5 4.9
2014-Sep-01 15:32N 40°34' W 074°02'6 5.6
2014-Sep-01 14:28N 40°30' W 073°56'10 5.0
2014-Sep-01 12:27N 40°20' W 073°53'13 5.6
2014-Sep-01 10:06N 40°07' W 073°54'8 5.3
2014-Sep-01 08:33N 39°59' W 073°56'6 5.3
2014-Sep-01 07:31N 39°53' W 073°57'5 5.4
2014-Sep-01 06:33N 39°48' W 073°58'6 5.6
2014-Sep-01 05:32N 39°43' W 073°59'6 5.7
2014-Sep-01 04:33N 39°38' W 074°03'6 5.7
2014-Sep-01 03:33N 39°32' W 074°05'6 6.0
2014-Sep-01 02:32N 39°27' W 074°09'25 6.3
2014-Aug-31 22:31N 39°05' W 074°25'152 7.2
2014-Aug-31 01:29N 36°45' W 075°41'8 7.2
2014-Aug-31 00:22N 36°38' W 075°45'131 6.3
2014-Aug-30 03:28N 34°29' W 076°16'7 7.2
2014-Aug-30 02:32N 34°25' W 076°22'7 7.3
2014-Aug-30 01:34N 34°20' W 076°29'8 7.3
2014-Aug-30 00:29N 34°15' W 076°36'14 7.2
2014-Aug-29 22:29N 34°06' W 076°49'7 7.1
2014-Aug-29 21:33N 34°02' W 076°56'117 7.3
2014-Aug-29 05:28N 33°12' W 079°02'7 6.1
2014-Aug-29 04:16N 33°13' W 079°11'8 4.2
2014-Aug-29 02:16N 33°20' W 079°17'  

Dump ship's entire track history